sensor_id;sensor_type;location;lat;lon;timestamp;pressure;altitude;pressure_sealevel;temperature;humidity
44441;BME280;30146;52.268;20.944;2022-07-23T00:00:47;100296.60;;;23.53;51.68
44441;BME280;30146;52.268;20.944;2022-07-23T00:03:19;100297.11;;;23.48;51.86
44441;BME280;30146;52.268;20.944;2022-07-23T00:05:50;100295.62;;;23.44;52.04
44441;BME280;30146;52.268;20.944;2022-07-23T00:08:21;100297.14;;;23.39;52.14
44441;BME280;30146;52.268;20.944;2022-07-23T00:10:52;100295.88;;;23.35;52.25
44441;BME280;30146;52.268;20.944;2022-07-23T00:13:23;100294.89;;;23.31;52.35
44441;BME280;30146;52.268;20.944;2022-07-23T00:15:55;100296.34;;;23.28;52.48
44441;BME280;30146;52.268;20.944;2022-07-23T00:18:26;100295.16;;;23.24;52.48
44441;BME280;30146;52.268;20.944;2022-07-23T00:20:57;100295.71;;;23.21;52.60
44441;BME280;30146;52.268;20.944;2022-07-23T00:23:29;100294.73;;;23.17;52.74
44441;BME280;30146;52.268;20.944;2022-07-23T00:26:00;100294.05;;;23.14;52.81
44441;BME280;30146;52.268;20.944;2022-07-23T00:28:31;100296.17;;;23.11;52.96
44441;BME280;30146;52.268;20.944;2022-07-23T00:31:03;100294.93;;;23.08;53.09
44441;BME280;30146;52.268;20.944;2022-07-23T00:33:34;100297.04;;;23.05;53.22
44441;BME280;30146;52.268;20.944;2022-07-23T00:36:06;100294.88;;;23.03;53.36
44441;BME280;30146;52.268;20.944;2022-07-23T00:38:38;100297.48;;;23.00;53.29
44441;BME280;30146;52.268;20.944;2022-07-23T00:41:10;100295.70;;;22.98;53.34
44441;BME280;30146;52.268;20.944;2022-07-23T00:43:41;100295.52;;;22.95;53.48
44441;BME280;30146;52.268;20.944;2022-07-23T00:46:13;100295.72;;;22.92;53.39
44441;BME280;30146;52.268;20.944;2022-07-23T00:48:44;100295.55;;;22.89;53.57
44441;BME280;30146;52.268;20.944;2022-07-23T00:51:16;100293.96;;;22.86;53.57
44441;BME280;30146;52.268;20.944;2022-07-23T00:53:48;100292.25;;;22.83;53.56
44441;BME280;30146;52.268;20.944;2022-07-23T00:56:20;100294.57;;;22.79;53.58
44441;BME280;30146;52.268;20.944;2022-07-23T00:58:51;100298.12;;;22.75;53.53
44441;BME280;30146;52.268;20.944;2022-07-23T01:01:23;100298.56;;;22.71;53.66
44441;BME280;30146;52.268;20.944;2022-07-23T01:03:54;100299.32;;;22.67;53.71
44441;BME280;30146;52.268;20.944;2022-07-23T01:06:25;100296.72;;;22.64;53.87
44441;BME280;30146;52.268;20.944;2022-07-23T01:08:56;100294.94;;;22.62;53.98
44441;BME280;30146;52.268;20.944;2022-07-23T01:11:29;100295.47;;;22.59;53.99
44441;BME280;30146;52.268;20.944;2022-07-23T01:14:06;100297.53;;;22.56;54.06
44441;BME280;30146;52.268;20.944;2022-07-23T01:16:38;100299.93;;;22.54;54.32
44441;BME280;30146;52.268;20.944;2022-07-23T01:19:11;100301.14;;;22.51;54.21
44441;BME280;30146;52.268;20.944;2022-07-23T01:21:45;100302.73;;;22.48;54.15
44441;BME280;30146;52.268;20.944;2022-07-23T01:24:17;100300.86;;;22.44;54.28
44441;BME280;30146;52.268;20.944;2022-07-23T01:27:01;100303.02;;;22.40;54.30
44441;BME280;30146;52.268;20.944;2022-07-23T01:29:33;100302.53;;;22.37;54.44
44441;BME280;30146;52.268;20.944;2022-07-23T01:32:09;100304.27;;;22.34;54.45
44441;BME280;30146;52.268;20.944;2022-07-23T01:34:40;100308.43;;;22.31;54.48
44441;BME280;30146;52.268;20.944;2022-07-23T01:37:14;100306.84;;;22.28;54.55
44441;BME280;30146;52.268;20.944;2022-07-23T01:39:46;100307.52;;;22.26;54.57
44441;BME280;30146;52.268;20.944;2022-07-23T01:42:18;100310.96;;;22.23;54.69
44441;BME280;30146;52.268;20.944;2022-07-23T01:44:49;100308.34;;;22.20;54.69
44441;BME280;30146;52.268;20.944;2022-07-23T01:47:22;100311.89;;;22.19;54.75
44441;BME280;30146;52.268;20.944;2022-07-23T01:49:55;100311.42;;;22.18;54.72
44441;BME280;30146;52.268;20.944;2022-07-23T01:53:02;100310.06;;;22.18;54.69
44441;BME280;30146;52.268;20.944;2022-07-23T01:55:33;100310.39;;;22.18;55.00
44441;BME280;30146;52.268;20.944;2022-07-23T01:58:05;100309.00;;;22.18;55.00
44441;BME280;30146;52.268;20.944;2022-07-23T02:00:38;100304.52;;;22.17;54.93
44441;BME280;30146;52.268;20.944;2022-07-23T02:03:09;100304.95;;;22.19;55.06
44441;BME280;30146;52.268;20.944;2022-07-23T02:05:41;100300.86;;;22.20;55.24
44441;BME280;30146;52.268;20.944;2022-07-23T02:08:12;100300.08;;;22.22;55.41
44441;BME280;30146;52.268;20.944;2022-07-23T02:10:43;100297.04;;;22.23;55.27
44441;BME280;30146;52.268;20.944;2022-07-23T02:13:15;100294.90;;;22.24;55.18
44441;BME280;30146;52.268;20.944;2022-07-23T02:15:48;100295.10;;;22.23;55.04
44441;BME280;30146;52.268;20.944;2022-07-23T02:18:20;100293.83;;;22.21;55.17
44441;BME280;30146;52.268;20.944;2022-07-23T02:20:54;100290.44;;;22.20;55.05
44441;BME280;30146;52.268;20.944;2022-07-23T02:23:25;100292.77;;;22.19;55.09
44441;BME280;30146;52.268;20.944;2022-07-23T02:25:56;100291.65;;;22.17;55.18
44441;BME280;30146;52.268;20.944;2022-07-23T02:28:27;100294.98;;;22.17;55.33
44441;BME280;30146;52.268;20.944;2022-07-23T02:30:59;100293.75;;;22.17;55.41
44441;BME280;30146;52.268;20.944;2022-07-23T02:33:30;100291.77;;;22.18;55.36
44441;BME280;30146;52.268;20.944;2022-07-23T02:36:02;100289.83;;;22.18;55.60
44441;BME280;30146;52.268;20.944;2022-07-23T02:38:33;100285.11;;;22.19;55.54
44441;BME280;30146;52.268;20.944;2022-07-23T02:41:04;100286.73;;;22.21;55.48
44441;BME280;30146;52.268;20.944;2022-07-23T02:43:35;100283.48;;;22.23;55.64
44441;BME280;30146;52.268;20.944;2022-07-23T02:46:07;100282.91;;;22.23;55.49
44441;BME280;30146;52.268;20.944;2022-07-23T02:48:41;100276.43;;;22.24;55.56
44441;BME280;30146;52.268;20.944;2022-07-23T02:51:13;100277.64;;;22.24;55.66
44441;BME280;30146;52.268;20.944;2022-07-23T02:53:51;100277.46;;;22.24;55.63
44441;BME280;30146;52.268;20.944;2022-07-23T02:56:23;100276.55;;;22.22;55.53
44441;BME280;30146;52.268;20.944;2022-07-23T02:58:54;100274.17;;;22.21;55.53
44441;BME280;30146;52.268;20.944;2022-07-23T03:01:25;100273.55;;;22.20;55.66
44441;BME280;30146;52.268;20.944;2022-07-23T03:03:56;100275.73;;;22.18;55.61
44441;BME280;30146;52.268;20.944;2022-07-23T03:06:28;100275.53;;;22.16;55.57
44441;BME280;30146;52.268;20.944;2022-07-23T03:08:59;100275.80;;;22.14;55.73
44441;BME280;30146;52.268;20.944;2022-07-23T03:11:31;100275.48;;;22.14;55.69
44441;BME280;30146;52.268;20.944;2022-07-23T03:14:02;100274.08;;;22.14;55.90
44441;BME280;30146;52.268;20.944;2022-07-23T03:16:33;100276.52;;;22.14;55.97
44441;BME280;30146;52.268;20.944;2022-07-23T03:19:04;100279.39;;;22.15;56.00
44441;BME280;30146;52.268;20.944;2022-07-23T03:21:35;100272.86;;;22.17;56.03
44441;BME280;30146;52.268;20.944;2022-07-23T03:24:10;100279.92;;;22.18;56.11
44441;BME280;30146;52.268;20.944;2022-07-23T03:26:41;100277.92;;;22.19;56.16
44441;BME280;30146;52.268;20.944;2022-07-23T03:29:12;100280.42;;;22.21;56.17
44441;BME280;30146;52.268;20.944;2022-07-23T03:31:44;100284.69;;;22.23;56.11
44441;BME280;30146;52.268;20.944;2022-07-23T03:34:16;100283.52;;;22.25;56.18
44441;BME280;30146;52.268;20.944;2022-07-23T03:36:48;100285.02;;;22.27;56.28
44441;BME280;30146;52.268;20.944;2022-07-23T03:39:19;100282.50;;;22.28;56.22
44441;BME280;30146;52.268;20.944;2022-07-23T03:41:50;100286.43;;;22.29;56.12
44441;BME280;30146;52.268;20.944;2022-07-23T03:44:21;100291.30;;;22.29;56.20
44441;BME280;30146;52.268;20.944;2022-07-23T03:46:53;100292.90;;;22.32;56.30
44441;BME280;30146;52.268;20.944;2022-07-23T03:49:24;100299.46;;;22.36;56.29
44441;BME280;30146;52.268;20.944;2022-07-23T03:51:57;100301.38;;;22.41;56.30
44441;BME280;30146;52.268;20.944;2022-07-23T03:54:29;100302.60;;;22.50;56.29
44441;BME280;30146;52.268;20.944;2022-07-23T03:57:00;100302.86;;;22.61;56.36
44441;BME280;30146;52.268;20.944;2022-07-23T03:59:33;100298.01;;;22.72;56.26
44441;BME280;30146;52.268;20.944;2022-07-23T04:02:04;100294.48;;;22.84;56.09
44441;BME280;30146;52.268;20.944;2022-07-23T04:04:36;100293.71;;;22.96;56.06
44441;BME280;30146;52.268;20.944;2022-07-23T04:07:08;100293.62;;;23.10;55.98
44441;BME280;30146;52.268;20.944;2022-07-23T04:09:40;100294.98;;;23.24;55.95
44441;BME280;30146;52.268;20.944;2022-07-23T04:12:15;100295.53;;;23.40;55.85
44441;BME280;30146;52.268;20.944;2022-07-23T04:14:46;100302.33;;;23.56;55.73
44441;BME280;30146;52.268;20.944;2022-07-23T04:17:17;100302.63;;;23.74;55.62
44441;BME280;30146;52.268;20.944;2022-07-23T04:19:48;100304.11;;;23.91;55.47
44441;BME280;30146;52.268;20.944;2022-07-23T04:22:23;100298.13;;;24.08;55.28
44441;BME280;30146;52.268;20.944;2022-07-23T04:24:54;100296.43;;;24.26;55.10
44441;BME280;30146;52.268;20.944;2022-07-23T04:27:25;100294.32;;;24.44;54.85
44441;BME280;30146;52.268;20.944;2022-07-23T04:29:57;100293.33;;;24.64;54.61
44441;BME280;30146;52.268;20.944;2022-07-23T04:32:28;100293.81;;;24.85;54.44
44441;BME280;30146;52.268;20.944;2022-07-23T04:35:00;100292.34;;;25.08;54.56
44441;BME280;30146;52.268;20.944;2022-07-23T04:37:32;100291.13;;;25.28;54.08
44441;BME280;30146;52.268;20.944;2022-07-23T04:40:05;100293.89;;;25.48;53.67
44441;BME280;30146;52.268;20.944;2022-07-23T04:42:38;100291.58;;;25.70;53.30
44441;BME280;30146;52.268;20.944;2022-07-23T04:45:10;100290.42;;;25.93;53.38
44441;BME280;30146;52.268;20.944;2022-07-23T04:47:42;100288.52;;;26.18;52.96
44441;BME280;30146;52.268;20.944;2022-07-23T04:50:14;100286.94;;;26.42;52.35
44441;BME280;30146;52.268;20.944;2022-07-23T04:52:48;100283.00;;;26.68;52.47
44441;BME280;30146;52.268;20.944;2022-07-23T04:55:21;100283.78;;;26.96;52.16
44441;BME280;30146;52.268;20.944;2022-07-23T04:57:52;100290.47;;;27.23;51.41
44441;BME280;30146;52.268;20.944;2022-07-23T05:00:23;100295.44;;;27.50;51.18
44441;BME280;30146;52.268;20.944;2022-07-23T05:02:54;100292.60;;;27.81;51.00
44441;BME280;30146;52.268;20.944;2022-07-23T05:05:26;100294.39;;;28.14;50.68
44441;BME280;30146;52.268;20.944;2022-07-23T05:08:00;100297.58;;;28.47;50.03
44441;BME280;30146;52.268;20.944;2022-07-23T05:10:32;100295.35;;;28.80;49.65
44441;BME280;30146;52.268;20.944;2022-07-23T05:13:03;100298.08;;;29.11;49.12
44441;BME280;30146;52.268;20.944;2022-07-23T05:15:34;100300.65;;;29.40;48.72
44441;BME280;30146;52.268;20.944;2022-07-23T05:18:06;100299.00;;;29.72;48.35
44441;BME280;30146;52.268;20.944;2022-07-23T05:20:38;100299.84;;;30.06;47.89
44441;BME280;30146;52.268;20.944;2022-07-23T05:23:09;100297.31;;;30.39;47.44
44441;BME280;30146;52.268;20.944;2022-07-23T05:25:41;100291.29;;;30.71;46.78
44441;BME280;30146;52.268;20.944;2022-07-23T05:28:12;100291.12;;;31.04;46.13
44441;BME280;30146;52.268;20.944;2022-07-23T05:30:43;100297.57;;;31.38;45.55
44441;BME280;30146;52.268;20.944;2022-07-23T05:33:16;100297.44;;;31.70;44.70
44441;BME280;30146;52.268;20.944;2022-07-23T05:35:48;100296.46;;;32.00;44.51
44441;BME280;30146;52.268;20.944;2022-07-23T05:38:30;100293.04;;;32.35;44.21
44441;BME280;30146;52.268;20.944;2022-07-23T05:41:02;100286.73;;;32.71;43.79
44441;BME280;30146;52.268;20.944;2022-07-23T05:43:34;100283.27;;;33.09;43.46
44441;BME280;30146;52.268;20.944;2022-07-23T05:46:09;100283.25;;;33.46;42.77
44441;BME280;30146;52.268;20.944;2022-07-23T05:48:43;100279.86;;;33.79;42.16
44441;BME280;30146;52.268;20.944;2022-07-23T05:51:29;100282.71;;;34.15;41.39
44441;BME280;30146;52.268;20.944;2022-07-23T05:54:01;100285.91;;;34.46;41.03
44441;BME280;30146;52.268;20.944;2022-07-23T05:56:36;100284.79;;;34.78;40.34
44441;BME280;30146;52.268;20.944;2022-07-23T05:59:08;100283.35;;;35.06;39.91
44441;BME280;30146;52.268;20.944;2022-07-23T06:01:41;100288.79;;;35.38;39.33
44441;BME280;30146;52.268;20.944;2022-07-23T06:04:13;100284.67;;;35.72;39.23
44441;BME280;30146;52.268;20.944;2022-07-23T06:06:51;100287.86;;;36.05;38.48
44441;BME280;30146;52.268;20.944;2022-07-23T06:09:23;100284.58;;;36.38;37.91
44441;BME280;30146;52.268;20.944;2022-07-23T06:11:54;100286.31;;;36.71;37.60
44441;BME280;30146;52.268;20.944;2022-07-23T06:14:25;100285.83;;;36.98;36.79
44441;BME280;30146;52.268;20.944;2022-07-23T06:16:58;100282.09;;;37.21;36.51
44441;BME280;30146;52.268;20.944;2022-07-23T06:19:29;100280.08;;;37.48;36.12
44441;BME280;30146;52.268;20.944;2022-07-23T06:22:01;100281.50;;;37.72;35.71
44441;BME280;30146;52.268;20.944;2022-07-23T06:24:32;100281.92;;;37.96;35.22
44441;BME280;30146;52.268;20.944;2022-07-23T06:27:04;100280.94;;;38.19;34.97
44441;BME280;30146;52.268;20.944;2022-07-23T06:29:37;100281.39;;;38.40;34.56
44441;BME280;30146;52.268;20.944;2022-07-23T06:32:10;100282.44;;;38.62;34.00
44441;BME280;30146;52.268;20.944;2022-07-23T06:34:41;100279.25;;;38.81;33.60
44441;BME280;30146;52.268;20.944;2022-07-23T06:37:17;100280.80;;;38.99;33.22
44441;BME280;30146;52.268;20.944;2022-07-23T06:39:49;100283.56;;;39.16;33.00
44441;BME280;30146;52.268;20.944;2022-07-23T06:42:20;100284.30;;;39.36;32.67
44441;BME280;30146;52.268;20.944;2022-07-23T06:44:58;100285.41;;;39.55;32.50
44441;BME280;30146;52.268;20.944;2022-07-23T06:47:30;100286.44;;;39.69;32.26
44441;BME280;30146;52.268;20.944;2022-07-23T06:50:03;100286.01;;;39.78;31.89
44441;BME280;30146;52.268;20.944;2022-07-23T06:52:34;100285.48;;;39.86;31.79
44441;BME280;30146;52.268;20.944;2022-07-23T06:55:11;100280.66;;;39.93;31.68
44441;BME280;30146;52.268;20.944;2022-07-23T06:57:43;100275.64;;;39.87;31.04
44441;BME280;30146;52.268;20.944;2022-07-23T07:00:15;100278.10;;;39.75;30.98
44441;BME280;30146;52.268;20.944;2022-07-23T07:02:46;100275.05;;;39.60;30.99
44441;BME280;30146;52.268;20.944;2022-07-23T07:05:17;100273.14;;;39.49;31.09
44441;BME280;30146;52.268;20.944;2022-07-23T07:07:48;100271.56;;;39.39;31.05
44441;BME280;30146;52.268;20.944;2022-07-23T07:10:20;100271.58;;;39.25;30.86
44441;BME280;30146;52.268;20.944;2022-07-23T07:12:51;100269.29;;;39.12;31.12
44441;BME280;30146;52.268;20.944;2022-07-23T07:15:22;100267.45;;;39.01;31.27
44441;BME280;30146;52.268;20.944;2022-07-23T07:17:53;100265.56;;;38.95;31.09
44441;BME280;30146;52.268;20.944;2022-07-23T07:20:25;100265.33;;;38.84;31.00
44441;BME280;30146;52.268;20.944;2022-07-23T07:22:56;100264.21;;;38.78;31.19
44441;BME280;30146;52.268;20.944;2022-07-23T07:25:27;100264.62;;;38.76;31.38
44441;BME280;30146;52.268;20.944;2022-07-23T07:27:59;100260.95;;;38.76;31.49
44441;BME280;30146;52.268;20.944;2022-07-23T07:30:30;100255.74;;;38.76;31.52
44441;BME280;30146;52.268;20.944;2022-07-23T07:33:03;100252.65;;;38.78;31.39
44441;BME280;30146;52.268;20.944;2022-07-23T07:36:16;100252.08;;;38.81;31.21
44441;BME280;30146;52.268;20.944;2022-07-23T07:38:48;100253.02;;;38.82;31.05
44441;BME280;30146;52.268;20.944;2022-07-23T07:41:19;100253.53;;;38.81;31.00
44441;BME280;30146;52.268;20.944;2022-07-23T07:43:54;100251.10;;;38.80;31.05
44441;BME280;30146;52.268;20.944;2022-07-23T07:46:25;100253.94;;;38.77;31.03
44441;BME280;30146;52.268;20.944;2022-07-23T07:49:00;100256.35;;;38.74;31.02
44441;BME280;30146;52.268;20.944;2022-07-23T07:51:35;100254.48;;;38.66;30.92
44441;BME280;30146;52.268;20.944;2022-07-23T07:54:06;100256.91;;;38.57;30.46
44441;BME280;30146;52.268;20.944;2022-07-23T07:56:45;100254.40;;;38.42;30.27
44441;BME280;30146;52.268;20.944;2022-07-23T07:59:19;100261.14;;;38.29;30.24
44441;BME280;30146;52.268;20.944;2022-07-23T08:01:51;100264.81;;;38.15;30.35
44441;BME280;30146;52.268;20.944;2022-07-23T08:04:23;100268.21;;;38.04;30.36
44441;BME280;30146;52.268;20.944;2022-07-23T08:06:55;100268.28;;;37.94;30.44
44441;BME280;30146;52.268;20.944;2022-07-23T08:09:27;100263.75;;;37.81;30.18
44441;BME280;30146;52.268;20.944;2022-07-23T08:11:59;100265.09;;;37.64;30.02
44441;BME280;30146;52.268;20.944;2022-07-23T08:14:31;100265.05;;;37.41;29.84
44441;BME280;30146;52.268;20.944;2022-07-23T08:17:03;100264.83;;;37.20;29.71
44441;BME280;30146;52.268;20.944;2022-07-23T08:19:44;100268.23;;;37.05;30.06
44441;BME280;30146;52.268;20.944;2022-07-23T08:22:16;100269.77;;;36.96;30.16
44441;BME280;30146;52.268;20.944;2022-07-23T08:24:47;100263.31;;;36.84;30.05
44441;BME280;30146;52.268;20.944;2022-07-23T08:27:20;100267.89;;;36.74;30.40
44441;BME280;30146;52.268;20.944;2022-07-23T08:29:52;100274.39;;;36.69;30.75
44441;BME280;30146;52.268;20.944;2022-07-23T08:32:23;100273.88;;;36.69;31.09
44441;BME280;30146;52.268;20.944;2022-07-23T08:35:14;100268.87;;;36.68;30.58
44441;BME280;30146;52.268;20.944;2022-07-23T08:37:45;100268.95;;;36.60;30.34
44441;BME280;30146;52.268;20.944;2022-07-23T08:40:17;100264.17;;;36.52;30.62
44441;BME280;30146;52.268;20.944;2022-07-23T08:42:50;100265.84;;;36.50;30.57
44441;BME280;30146;52.268;20.944;2022-07-23T08:45:23;100263.88;;;36.49;30.67
44441;BME280;30146;52.268;20.944;2022-07-23T08:47:56;100270.14;;;36.50;31.16
44441;BME280;30146;52.268;20.944;2022-07-23T08:50:32;100267.05;;;36.52;31.08
44441;BME280;30146;52.268;20.944;2022-07-23T08:53:07;100265.73;;;36.51;31.14
44441;BME280;30146;52.268;20.944;2022-07-23T08:55:39;100266.45;;;36.47;30.61
44441;BME280;30146;52.268;20.944;2022-07-23T08:58:10;100265.64;;;36.38;30.72
44441;BME280;30146;52.268;20.944;2022-07-23T09:00:42;100264.64;;;36.25;30.43
44441;BME280;30146;52.268;20.944;2022-07-23T09:03:19;100264.36;;;36.13;30.50
44441;BME280;30146;52.268;20.944;2022-07-23T09:05:52;100262.75;;;36.09;30.85
44441;BME280;30146;52.268;20.944;2022-07-23T09:08:25;100260.36;;;36.08;31.28
44441;BME280;30146;52.268;20.944;2022-07-23T09:10:59;100260.95;;;36.12;31.31
44441;BME280;30146;52.268;20.944;2022-07-23T09:13:35;100255.27;;;36.09;30.65
44441;BME280;30146;52.268;20.944;2022-07-23T09:16:11;100254.29;;;36.01;30.93
44441;BME280;30146;52.268;20.944;2022-07-23T09:18:45;100255.45;;;35.96;30.56
44441;BME280;30146;52.268;20.944;2022-07-23T09:21:23;100250.48;;;35.91;30.94
44441;BME280;30146;52.268;20.944;2022-07-23T09:23:57;100250.59;;;35.87;31.18
44441;BME280;30146;52.268;20.944;2022-07-23T09:26:33;100250.30;;;35.89;31.46
44441;BME280;30146;52.268;20.944;2022-07-23T09:29:11;100250.40;;;35.93;31.04
44441;BME280;30146;52.268;20.944;2022-07-23T09:31:49;100254.88;;;35.93;30.93
44441;BME280;30146;52.268;20.944;2022-07-23T09:34:23;100252.49;;;35.90;30.96
44441;BME280;30146;52.268;20.944;2022-07-23T09:36:58;100247.82;;;35.88;30.68
44441;BME280;30146;52.268;20.944;2022-07-23T09:39:31;100246.09;;;35.88;30.60
44441;BME280;30146;52.268;20.944;2022-07-23T09:42:17;100243.02;;;35.88;30.34
44441;BME280;30146;52.268;20.944;2022-07-23T09:44:50;100237.36;;;35.86;30.38
44441;BME280;30146;52.268;20.944;2022-07-23T09:47:24;100237.46;;;35.80;30.15
44441;BME280;30146;52.268;20.944;2022-07-23T09:50:02;100229.02;;;35.74;30.02
44441;BME280;30146;52.268;20.944;2022-07-23T09:53:00;100227.09;;;35.67;30.06
44441;BME280;30146;52.268;20.944;2022-07-23T09:55:36;100227.84;;;35.65;30.44
44441;BME280;30146;52.268;20.944;2022-07-23T09:58:08;100226.61;;;35.65;30.32
44441;BME280;30146;52.268;20.944;2022-07-23T10:00:42;100225.02;;;35.65;30.27
44441;BME280;30146;52.268;20.944;2022-07-23T10:03:15;100226.27;;;35.65;30.21
44441;BME280;30146;52.268;20.944;2022-07-23T10:06:09;100222.91;;;35.65;30.40
44441;BME280;30146;52.268;20.944;2022-07-23T10:09:01;100221.85;;;35.60;30.21
44441;BME280;30146;52.268;20.944;2022-07-23T10:11:52;100220.45;;;35.54;30.00
44441;BME280;30146;52.268;20.944;2022-07-23T10:14:39;100223.30;;;35.46;29.88
44441;BME280;30146;52.268;20.944;2022-07-23T10:17:11;100219.39;;;35.39;30.15
44441;BME280;30146;52.268;20.944;2022-07-23T10:19:43;100220.39;;;35.33;30.13
44441;BME280;30146;52.268;20.944;2022-07-23T10:22:18;100220.70;;;35.27;30.24
44441;BME280;30146;52.268;20.944;2022-07-23T10:25:10;100218.15;;;35.22;30.10
44441;BME280;30146;52.268;20.944;2022-07-23T10:28:04;100213.52;;;35.17;30.14
44441;BME280;30146;52.268;20.944;2022-07-23T10:30:45;100211.05;;;35.14;30.09
44441;BME280;30146;52.268;20.944;2022-07-23T10:33:32;100210.71;;;35.06;29.89
44441;BME280;30146;52.268;20.944;2022-07-23T10:36:18;100209.48;;;34.97;29.79
44441;BME280;30146;52.268;20.944;2022-07-23T10:38:54;100207.73;;;34.94;30.19
44441;BME280;30146;52.268;20.944;2022-07-23T10:41:35;100211.06;;;34.92;30.28
44441;BME280;30146;52.268;20.944;2022-07-23T10:44:11;100209.82;;;34.91;30.24
44441;BME280;30146;52.268;20.944;2022-07-23T10:47:02;100212.69;;;34.89;30.11
44441;BME280;30146;52.268;20.944;2022-07-23T10:49:52;100209.08;;;34.82;30.08
44441;BME280;30146;52.268;20.944;2022-07-23T10:52:26;100207.36;;;34.74;30.10
44441;BME280;30146;52.268;20.944;2022-07-23T10:58:07;100211.73;;;34.52;29.88
44441;BME280;30146;52.268;20.944;2022-07-23T11:00:38;100207.05;;;34.44;30.19
44441;BME280;30146;52.268;20.944;2022-07-23T11:06:09;100207.38;;;34.43;30.65
44441;BME280;30146;52.268;20.944;2022-07-23T11:08:41;100200.77;;;34.36;30.21
44441;BME280;30146;52.268;20.944;2022-07-23T11:11:12;100199.94;;;34.29;30.20
44441;BME280;30146;52.268;20.944;2022-07-23T11:13:48;100201.25;;;34.23;30.37
44441;BME280;30146;52.268;20.944;2022-07-23T11:16:25;100202.06;;;34.16;30.28
44441;BME280;30146;52.268;20.944;2022-07-23T11:19:07;100197.98;;;34.08;30.46
44441;BME280;30146;52.268;20.944;2022-07-23T11:21:50;100200.15;;;34.01;30.47
44441;BME280;30146;52.268;20.944;2022-07-23T11:24:25;100201.09;;;33.93;30.53
44441;BME280;30146;52.268;20.944;2022-07-23T11:26:59;100200.64;;;33.84;30.62
44441;BME280;30146;52.268;20.944;2022-07-23T11:29:45;100199.82;;;33.75;30.48
44441;BME280;30146;52.268;20.944;2022-07-23T11:32:39;100197.79;;;33.67;30.50
44441;BME280;30146;52.268;20.944;2022-07-23T11:35:23;100196.10;;;33.57;30.28
44441;BME280;30146;52.268;20.944;2022-07-23T11:38:06;100196.35;;;33.44;30.61
44441;BME280;30146;52.268;20.944;2022-07-23T11:40:37;100195.98;;;33.37;30.82
44441;BME280;30146;52.268;20.944;2022-07-23T11:43:11;100194.83;;;33.35;31.12
44441;BME280;30146;52.268;20.944;2022-07-23T11:45:45;100193.42;;;33.33;31.21
44441;BME280;30146;52.268;20.944;2022-07-23T11:48:23;100196.06;;;33.30;31.17
44441;BME280;30146;52.268;20.944;2022-07-23T11:50:57;100186.89;;;33.26;31.17
44441;BME280;30146;52.268;20.944;2022-07-23T11:53:31;100184.80;;;33.24;31.24
44441;BME280;30146;52.268;20.944;2022-07-23T11:56:08;100182.80;;;33.23;31.19
44441;BME280;30146;52.268;20.944;2022-07-23T11:58:55;100177.92;;;33.21;31.32
44441;BME280;30146;52.268;20.944;2022-07-23T12:01:30;100175.63;;;33.17;31.28
44441;BME280;30146;52.268;20.944;2022-07-23T12:05:03;100169.41;;;33.12;31.29
44441;BME280;30146;52.268;20.944;2022-07-23T12:07:36;100163.78;;;33.07;31.44
44441;BME280;30146;52.268;20.944;2022-07-23T12:10:13;100159.75;;;33.03;31.40
44441;BME280;30146;52.268;20.944;2022-07-23T12:12:49;100161.52;;;33.02;31.69
44441;BME280;30146;52.268;20.944;2022-07-23T12:15:23;100158.20;;;33.03;31.79
44441;BME280;30146;52.268;20.944;2022-07-23T12:17:54;100152.77;;;33.05;31.84
44441;BME280;30146;52.268;20.944;2022-07-23T12:20:28;100152.70;;;33.08;31.81
44441;BME280;30146;52.268;20.944;2022-07-23T12:23:03;100143.81;;;33.10;32.16
44441;BME280;30146;52.268;20.944;2022-07-23T12:25:37;100136.42;;;33.13;32.12
44441;BME280;30146;52.268;20.944;2022-07-23T12:28:12;100133.55;;;33.16;32.26
44441;BME280;30146;52.268;20.944;2022-07-23T12:30:45;100135.67;;;33.18;31.92
44441;BME280;30146;52.268;20.944;2022-07-23T12:33:24;100132.52;;;33.17;31.79
44441;BME280;30146;52.268;20.944;2022-07-23T12:35:59;100132.76;;;33.16;31.61
44441;BME280;30146;52.268;20.944;2022-07-23T12:38:39;100130.37;;;33.15;31.36
44441;BME280;30146;52.268;20.944;2022-07-23T12:41:10;100121.77;;;33.16;31.46
44441;BME280;30146;52.268;20.944;2022-07-23T12:43:46;100122.30;;;33.19;31.48
44441;BME280;30146;52.268;20.944;2022-07-23T12:46:19;100117.88;;;33.21;31.20
44441;BME280;30146;52.268;20.944;2022-07-23T12:48:55;100114.33;;;33.23;31.20
44441;BME280;30146;52.268;20.944;2022-07-23T12:51:29;100109.00;;;33.23;31.02
44441;BME280;30146;52.268;20.944;2022-07-23T12:54:07;100107.81;;;33.20;30.90
44441;BME280;30146;52.268;20.944;2022-07-23T12:56:44;100107.74;;;33.16;30.92
44441;BME280;30146;52.268;20.944;2022-07-23T12:59:18;100101.79;;;33.12;30.99
44441;BME280;30146;52.268;20.944;2022-07-23T13:01:55;100095.87;;;33.11;31.20
44441;BME280;30146;52.268;20.944;2022-07-23T13:04:29;100090.01;;;33.13;31.36
44441;BME280;30146;52.268;20.944;2022-07-23T13:07:02;100082.05;;;33.13;31.12
44441;BME280;30146;52.268;20.944;2022-07-23T13:09:35;100076.30;;;33.12;30.96
44441;BME280;30146;52.268;20.944;2022-07-23T13:12:12;100076.84;;;33.08;30.77
44441;BME280;30146;52.268;20.944;2022-07-23T13:14:44;100076.14;;;33.05;30.80
44441;BME280;30146;52.268;20.944;2022-07-23T13:17:15;100071.98;;;33.05;31.12
44441;BME280;30146;52.268;20.944;2022-07-23T13:19:49;100073.92;;;33.04;31.46
44441;BME280;30146;52.268;20.944;2022-07-23T13:22:21;100077.11;;;33.04;31.60